createdAt,value
2018-03-25T00:00:41.071Z,37.70
2018-03-25T00:01:41.043Z,38.40
2018-03-25T00:02:41.069Z,36.70
2018-03-25T00:03:41.048Z,38.30
2018-03-25T00:04:41.015Z,40.10
2018-03-25T00:05:41.013Z,38.80
2018-03-25T00:06:41.002Z,37.80
2018-03-25T00:07:40.981Z,40.00
2018-03-25T00:08:40.971Z,40.30
2018-03-25T00:09:40.980Z,39.70
2018-03-25T00:10:40.950Z,39.30
2018-03-25T00:11:40.952Z,41.30
2018-03-25T00:12:40.925Z,38.40
2018-03-25T00:13:40.918Z,36.70
2018-03-25T00:14:40.906Z,39.40
2018-03-25T00:15:40.910Z,39.10
2018-03-25T00:16:40.886Z,39.50
2018-03-25T00:17:40.873Z,39.40
2018-03-25T00:18:40.863Z,37.10
2018-03-25T00:19:40.852Z,36.50
2018-03-25T00:20:40.843Z,39.60
2018-03-25T00:21:40.842Z,38.70
2018-03-25T00:22:40.822Z,38.60
2018-03-25T00:23:40.822Z,39.40
2018-03-25T00:24:40.800Z,38.00
2018-03-25T00:25:40.787Z,41.30
2018-03-25T00:26:40.780Z,38.50
2018-03-25T00:27:40.863Z,41.00
2018-03-25T00:28:40.763Z,44.60
2018-03-25T00:29:40.750Z,38.90
2018-03-25T00:30:40.773Z,40.50
2018-03-25T00:31:40.725Z,36.70
2018-03-25T00:32:40.717Z,39.80
2018-03-25T00:33:40.718Z,42.30
2018-03-25T00:34:40.694Z,37.90
2018-03-25T00:35:40.699Z,39.60
2018-03-25T00:36:40.674Z,36.90
2018-03-25T00:37:40.660Z,37.20
2018-03-25T00:38:40.654Z,39.70
2018-03-25T00:39:40.654Z,39.40
2018-03-25T00:40:40.705Z,36.60
2018-03-25T00:41:40.638Z,38.90
2018-03-25T00:42:40.608Z,37.70
2018-03-25T00:43:40.603Z,37.70
2018-03-25T00:44:40.602Z,36.10
2018-03-25T00:45:40.591Z,35.90
2018-03-25T00:46:40.573Z,35.90
2018-03-25T00:47:40.558Z,36.40
2018-03-25T00:48:40.549Z,35.60
2018-03-25T00:49:40.538Z,34.90
2018-03-25T00:50:40.527Z,35.00
2018-03-25T00:51:40.520Z,34.30
2018-03-25T00:52:40.507Z,35.40
2018-03-25T00:53:40.499Z,36.20
2018-03-25T00:54:40.482Z,36.80
2018-03-25T00:55:40.476Z,34.00
2018-03-25T00:56:40.463Z,32.80
2018-03-25T00:57:40.451Z,34.00
2018-03-25T00:58:40.441Z,31.20
2018-03-25T00:59:40.432Z,34.50
2018-03-25T01:00:40.422Z,35.40
2018-03-25T01:01:40.410Z,33.60
2018-03-25T01:02:40.402Z,34.80
2018-03-25T01:03:40.392Z,35.50
2018-03-25T01:04:40.381Z,31.40
2018-03-25T01:05:40.365Z,33.90
2018-03-25T01:06:40.367Z,36.00
2018-03-25T01:07:40.374Z,33.00
2018-03-25T01:08:40.344Z,36.70
2018-03-25T01:09:40.325Z,33.80
2018-03-25T01:10:40.315Z,34.90
2018-03-25T01:11:40.304Z,34.20
2018-03-25T01:12:40.339Z,34.30
2018-03-25T01:13:40.281Z,33.90
2018-03-25T01:14:40.276Z,36.10
2018-03-25T01:15:40.278Z,32.50
2018-03-25T01:16:40.249Z,37.10
2018-03-25T01:17:40.241Z,37.40
2018-03-25T01:18:40.233Z,34.80
2018-03-25T01:19:40.219Z,33.90
2018-03-25T01:20:40.208Z,36.40
2018-03-25T01:21:40.201Z,33.90
2018-03-25T01:22:40.186Z,35.10
2018-03-25T01:23:40.177Z,35.10
2018-03-25T01:24:40.167Z,36.10
2018-03-25T01:25:40.159Z,31.80
2018-03-25T01:26:40.145Z,33.50
2018-03-25T01:27:40.135Z,31.90
2018-03-25T01:28:40.164Z,31.20
2018-03-25T01:29:40.126Z,33.40
2018-03-25T01:30:40.106Z,34.50
2018-03-25T01:31:40.103Z,33.40
2018-03-25T01:32:40.084Z,37.90
2018-03-25T01:33:40.072Z,33.70
2018-03-25T01:34:40.073Z,32.10
2018-03-25T01:35:40.058Z,33.80
2018-03-25T01:36:40.040Z,36.40
2018-03-25T01:37:40.027Z,32.00
2018-03-25T01:38:40.021Z,31.40
2018-03-25T01:39:40.009Z,34.90
2018-03-25T01:40:39.998Z,36.10
2018-03-25T01:41:39.985Z,34.50
2018-03-25T01:42:39.976Z,37.50
2018-03-25T01:43:39.965Z,36.10
2018-03-25T01:44:39.956Z,34.10
2018-03-25T01:45:39.943Z,34.60
2018-03-25T01:46:39.936Z,34.60
2018-03-25T01:47:39.920Z,35.70
2018-03-25T01:48:39.925Z,35.70
2018-03-25T01:49:39.917Z,38.10
2018-03-25T01:50:39.889Z,34.50
2018-03-25T01:51:39.891Z,35.40
2018-03-25T01:52:39.867Z,34.00
2018-03-25T01:53:39.858Z,33.80
2018-03-25T01:54:39.847Z,33.50
2018-03-25T01:55:39.837Z,36.60
2018-03-25T01:56:39.842Z,33.80
2018-03-25T01:57:39.812Z,35.50
2018-03-25T01:58:39.807Z,33.10
2018-03-25T01:59:39.808Z,35.60
2018-03-25T02:00:39.795Z,36.30
2018-03-25T02:01:39.768Z,34.40
2018-03-25T02:02:39.774Z,34.60
2018-03-25T02:03:39.751Z,34.00
2018-03-25T02:04:39.737Z,32.60
2018-03-25T02:05:39.727Z,36.30
2018-03-25T02:06:39.714Z,35.00
2018-03-25T02:07:39.707Z,33.70
2018-03-25T02:08:39.710Z,36.00
2018-03-25T02:09:39.684Z,35.90
2018-03-25T02:10:39.674Z,33.40
2018-03-25T02:11:39.672Z,34.20
2018-03-25T02:12:39.655Z,35.60
2018-03-25T02:13:39.642Z,33.70
2018-03-25T02:14:39.630Z,36.40
2018-03-25T02:15:39.619Z,33.50
2018-03-25T02:16:39.621Z,35.30
2018-03-25T02:17:39.596Z,33.50
2018-03-25T02:18:39.584Z,34.50
2018-03-25T02:19:39.585Z,36.90
2018-03-25T02:20:39.563Z,36.70
2018-03-25T02:21:39.567Z,36.00
2018-03-25T02:22:39.540Z,38.70
2018-03-25T02:23:39.532Z,35.00
2018-03-25T02:24:39.520Z,36.50
2018-03-25T02:25:39.511Z,37.10
2018-03-25T02:26:39.496Z,37.40
2018-03-25T02:27:39.487Z,36.50
2018-03-25T02:28:39.486Z,38.10
2018-03-25T02:29:39.463Z,34.00
2018-03-25T02:30:39.459Z,40.10
2018-03-25T02:31:39.445Z,33.60
2018-03-25T02:32:39.442Z,38.40
2018-03-25T02:33:39.421Z,38.90
2018-03-25T02:34:39.425Z,37.30
2018-03-25T02:35:39.398Z,37.10
2018-03-25T02:36:39.398Z,38.30
2018-03-25T02:37:39.379Z,38.90
2018-03-25T02:38:39.363Z,34.80
2018-03-25T02:39:39.364Z,35.70
2018-03-25T02:40:39.348Z,36.20
2018-03-25T02:41:39.335Z,36.10
2018-03-25T02:42:39.331Z,36.10
2018-03-25T02:43:39.311Z,37.20
2018-03-25T02:44:39.309Z,35.50
2018-03-25T02:45:39.304Z,34.30
2018-03-25T02:46:39.277Z,36.10
2018-03-25T02:47:39.266Z,35.30
2018-03-25T02:48:39.256Z,38.50
2018-03-25T02:49:39.242Z,36.20
2018-03-25T02:50:39.243Z,36.90
2018-03-25T02:51:39.217Z,35.00
2018-03-25T02:52:39.223Z,35.60
2018-03-25T02:53:39.197Z,35.40
2018-03-25T02:54:39.187Z,35.80
2018-03-25T02:55:39.190Z,35.50
2018-03-25T02:56:39.188Z,36.40
2018-03-25T02:57:39.162Z,36.50
2018-03-25T02:58:39.139Z,37.20
2018-03-25T02:59:39.140Z,34.90
2018-03-25T03:00:39.130Z,35.90
2018-03-25T03:01:39.109Z,35.30
2018-03-25T03:02:39.098Z,32.50
2018-03-25T03:03:39.108Z,34.20
2018-03-25T03:04:39.075Z,34.10
2018-03-25T03:05:39.073Z,32.90
2018-03-25T03:06:39.052Z,33.90
2018-03-25T03:07:39.055Z,34.40
2018-03-25T03:08:39.029Z,36.10
2018-03-25T03:09:39.018Z,35.10
2018-03-25T03:10:39.017Z,36.30
2018-03-25T03:11:38.992Z,37.90
2018-03-25T03:12:38.994Z,33.10
2018-03-25T03:13:38.975Z,35.70
2018-03-25T03:14:38.971Z,36.90
2018-03-25T03:15:38.950Z,36.10
2018-03-25T03:16:38.939Z,35.00
2018-03-25T03:17:38.925Z,35.40
2018-03-25T03:18:38.918Z,33.50
2018-03-25T03:19:38.907Z,35.80
2018-03-25T03:20:38.895Z,34.60
2018-03-25T03:21:38.884Z,32.80
2018-03-25T03:22:38.871Z,33.00
2018-03-25T03:23:38.862Z,36.10
2018-03-25T03:24:38.861Z,35.00
2018-03-25T03:25:38.840Z,32.80
2018-03-25T03:26:38.842Z,31.30
2018-03-25T03:27:38.826Z,34.40
2018-03-25T03:28:38.806Z,32.50
2018-03-25T03:29:38.795Z,34.40
2018-03-25T03:30:38.784Z,33.30
2018-03-25T03:31:38.793Z,35.70
2018-03-25T03:32:38.761Z,33.60
2018-03-25T03:33:38.749Z,35.50
2018-03-25T03:34:38.744Z,36.30
2018-03-25T03:35:38.728Z,32.30
2018-03-25T03:36:38.719Z,33.40
2018-03-25T03:37:38.705Z,34.70
2018-03-25T03:38:38.706Z,34.30
2018-03-25T03:39:38.684Z,33.00
2018-03-25T03:40:38.673Z,35.50
2018-03-25T03:41:38.662Z,35.00
2018-03-25T03:42:38.648Z,33.60
2018-03-25T03:43:38.638Z,33.50
2018-03-25T03:44:38.639Z,31.70
2018-03-25T03:45:38.616Z,34.50
2018-03-25T03:46:38.607Z,32.70
2018-03-25T03:47:38.593Z,36.80
2018-03-25T03:48:38.584Z,36.50
2018-03-25T03:49:38.572Z,35.20
2018-03-25T03:50:38.560Z,35.70
2018-03-25T03:51:38.554Z,35.30
2018-03-25T03:52:38.541Z,33.50
2018-03-25T03:53:38.538Z,33.60
2018-03-25T03:54:38.518Z,33.40
2018-03-25T03:55:38.518Z,36.00
2018-03-25T03:56:38.498Z,34.00
2018-03-25T03:57:38.482Z,35.90
2018-03-25T03:58:38.484Z,37.90
2018-03-25T03:59:38.461Z,35.60
2018-03-25T04:00:38.463Z,35.20
2018-03-25T04:01:38.438Z,37.30
2018-03-25T04:02:38.439Z,35.90
2018-03-25T04:03:38.428Z,36.40
2018-03-25T04:04:38.407Z,35.60
2018-03-25T04:05:38.406Z,34.40
2018-03-25T04:06:38.381Z,35.30
2018-03-25T04:07:38.374Z,35.70
2018-03-25T04:08:38.364Z,33.80
2018-03-25T04:09:38.351Z,31.50
2018-03-25T04:10:38.353Z,34.90
2018-03-25T04:11:38.329Z,33.50
2018-03-25T04:12:38.331Z,35.30
2018-03-25T04:13:38.308Z,34.40
2018-03-25T04:14:38.295Z,34.00
2018-03-25T04:15:38.297Z,36.50
2018-03-25T04:16:38.274Z,33.60
2018-03-25T04:17:38.261Z,34.00
2018-03-25T04:18:38.253Z,33.90
2018-03-25T04:19:38.252Z,32.40
2018-03-25T04:20:38.240Z,34.40
2018-03-25T04:21:38.222Z,35.70
2018-03-25T04:22:38.208Z,34.60
2018-03-25T04:23:38.197Z,38.20
2018-03-25T04:24:38.199Z,35.10
2018-03-25T04:25:38.171Z,34.00
2018-03-25T04:26:38.163Z,35.40
2018-03-25T04:27:38.163Z,33.90
2018-03-25T04:28:38.151Z,36.00
2018-03-25T04:29:38.133Z,38.60
2018-03-25T04:30:38.128Z,36.10
2018-03-25T04:31:38.104Z,36.20
2018-03-25T04:32:38.096Z,34.90
2018-03-25T04:33:38.092Z,34.60
2018-03-25T04:34:38.072Z,36.10
2018-03-25T04:35:38.076Z,35.00
2018-03-25T04:36:38.053Z,35.20
2018-03-25T04:37:38.051Z,37.80
2018-03-25T04:38:38.028Z,36.00
2018-03-25T04:39:38.019Z,36.10
2018-03-25T04:40:38.006Z,36.90
2018-03-25T04:41:37.994Z,36.60
2018-03-25T04:42:37.986Z,36.10
2018-03-25T04:43:37.975Z,35.80
2018-03-25T04:44:37.963Z,34.50
2018-03-25T04:45:37.949Z,38.10
2018-03-25T04:46:37.953Z,35.00
2018-03-25T04:47:37.927Z,36.50
2018-03-25T04:48:37.917Z,35.50
2018-03-25T04:49:37.904Z,37.60
2018-03-25T04:50:37.908Z,38.60
2018-03-25T04:51:37.882Z,34.50
2018-03-25T04:52:37.886Z,35.90
2018-03-25T04:53:37.875Z,38.80
2018-03-25T04:54:37.851Z,36.00
2018-03-25T04:55:37.839Z,37.60
2018-03-25T04:56:37.832Z,37.60
2018-03-25T04:57:37.818Z,38.20
2018-03-25T04:58:37.807Z,38.20
2018-03-25T04:59:37.806Z,37.60
2018-03-25T05:00:37.787Z,35.70
2018-03-25T05:01:37.796Z,34.70
2018-03-25T05:02:37.773Z,37.30
2018-03-25T05:03:37.753Z,36.00
2018-03-25T05:04:37.742Z,38.30
2018-03-25T05:05:37.731Z,37.30
2018-03-25T05:06:37.718Z,38.90
2018-03-25T05:07:37.706Z,38.60
2018-03-25T05:08:37.698Z,37.30
2018-03-25T05:09:37.690Z,36.40
2018-03-25T05:10:37.675Z,36.90
2018-03-25T05:11:37.663Z,38.10
2018-03-25T05:12:37.650Z,38.40
2018-03-25T05:13:37.640Z,39.60
2018-03-25T05:14:37.626Z,36.70
2018-03-25T05:15:37.621Z,35.30
2018-03-25T05:16:37.623Z,37.30
2018-03-25T05:17:37.599Z,38.40
2018-03-25T05:18:37.595Z,37.20
2018-03-25T05:19:37.588Z,38.50
2018-03-25T05:20:37.572Z,38.00
2018-03-25T05:21:37.563Z,38.80
2018-03-25T05:22:37.554Z,36.30
2018-03-25T05:23:37.533Z,40.10
2018-03-25T05:24:37.519Z,35.40
2018-03-25T05:25:37.509Z,37.80
2018-03-25T05:26:37.494Z,37.50
2018-03-25T05:27:37.483Z,36.70
2018-03-25T05:28:37.473Z,39.70
2018-03-25T05:29:37.465Z,37.00
2018-03-25T05:30:37.467Z,37.80
2018-03-25T05:31:37.452Z,38.40
2018-03-25T05:32:37.428Z,36.20
2018-03-25T05:33:37.419Z,38.40
2018-03-25T05:34:37.421Z,38.00
2018-03-25T05:35:37.412Z,37.60
2018-03-25T05:36:37.397Z,36.20
2018-03-25T05:37:37.380Z,35.70
2018-03-25T05:38:37.364Z,36.90
2018-03-25T05:39:37.354Z,38.60
2018-03-25T05:40:37.344Z,37.80
2018-03-25T05:41:37.330Z,38.00
2018-03-25T05:42:37.318Z,36.40
2018-03-25T05:43:37.320Z,40.20
2018-03-25T05:44:37.297Z,36.90
2018-03-25T05:45:37.302Z,36.40
2018-03-25T05:46:37.289Z,37.30
2018-03-25T05:47:37.271Z,39.90
2018-03-25T05:48:37.265Z,36.80
2018-03-25T05:49:37.245Z,38.50
2018-03-25T05:50:37.233Z,37.60
2018-03-25T05:51:37.223Z,37.00
2018-03-25T05:52:37.232Z,37.10
2018-03-25T05:53:37.202Z,37.70
2018-03-25T05:54:37.191Z,36.10
2018-03-25T05:55:37.178Z,37.30
2018-03-25T05:56:37.170Z,36.40
2018-03-25T05:57:37.167Z,37.80
2018-03-25T05:58:37.161Z,39.10
2018-03-25T05:59:37.136Z,40.50
2018-03-25T06:00:37.124Z,37.70
2018-03-25T06:01:37.116Z,39.30
2018-03-25T06:02:37.103Z,40.40
2018-03-25T06:03:37.103Z,39.20
2018-03-25T06:04:37.081Z,39.10
2018-03-25T06:05:37.069Z,37.00
2018-03-25T06:06:37.060Z,35.60
2018-03-25T06:07:37.052Z,37.50
2018-03-25T06:08:37.040Z,37.80
2018-03-25T06:09:37.027Z,37.20
2018-03-25T06:10:37.016Z,39.60
2018-03-25T06:11:37.018Z,38.00
2018-03-25T06:12:36.998Z,36.70
2018-03-25T06:13:36.986Z,38.60
2018-03-25T06:14:36.986Z,38.20
2018-03-25T06:15:36.988Z,39.00
2018-03-25T06:16:36.965Z,38.10
2018-03-25T06:17:37.006Z,39.40
2018-03-25T06:18:36.933Z,38.30
2018-03-25T06:19:36.921Z,37.80
2018-03-25T06:20:36.929Z,38.70
2018-03-25T06:21:36.899Z,39.40
2018-03-25T06:22:36.901Z,42.70
2018-03-25T06:23:36.890Z,40.60
2018-03-25T06:24:36.879Z,37.40
2018-03-25T06:25:36.870Z,38.70
2018-03-25T06:26:36.847Z,39.60
2018-03-25T06:27:36.846Z,39.40
2018-03-25T06:28:36.832Z,40.60
2018-03-25T06:29:36.827Z,40.60
2018-03-25T06:30:36.816Z,38.80
2018-03-25T06:31:36.816Z,39.70
2018-03-25T06:32:36.797Z,41.20
2018-03-25T06:33:36.774Z,41.40
2018-03-25T06:34:36.765Z,38.40
2018-03-25T06:35:36.754Z,41.10
2018-03-25T06:36:36.745Z,39.40
2018-03-25T06:37:36.732Z,40.50
2018-03-25T06:38:36.747Z,38.40
2018-03-25T06:39:36.712Z,42.10
2018-03-25T06:40:36.701Z,41.50
2018-03-25T06:41:36.691Z,43.90
2018-03-25T06:42:36.678Z,42.00
2018-03-25T06:43:36.677Z,39.50
2018-03-25T06:44:36.669Z,38.90
2018-03-25T06:45:36.648Z,40.70
2018-03-25T06:46:36.638Z,39.70
2018-03-25T06:47:36.629Z,40.90
2018-03-25T06:48:36.722Z,40.50
2018-03-25T06:49:36.616Z,40.90
2018-03-25T06:50:36.595Z,39.10
2018-03-25T06:51:36.587Z,39.30
2018-03-25T06:52:36.575Z,39.90
2018-03-25T06:53:36.576Z,41.30
2018-03-25T06:54:36.566Z,40.20
2018-03-25T06:55:36.547Z,39.10
2018-03-25T06:56:36.535Z,38.70
2018-03-25T06:57:36.520Z,39.40
2018-03-25T06:58:36.513Z,39.50
2018-03-25T06:59:36.502Z,39.10
2018-03-25T07:00:36.504Z,38.70
2018-03-25T07:01:36.481Z,38.80
2018-03-25T07:02:36.483Z,40.70
2018-03-25T07:03:36.473Z,40.60
2018-03-25T07:04:36.464Z,36.80
2018-03-25T07:05:36.453Z,41.80
2018-03-25T07:06:36.442Z,40.20
2018-03-25T07:07:36.421Z,41.10
2018-03-25T07:08:36.410Z,41.10
2018-03-25T07:09:36.400Z,41.20
2018-03-25T07:10:36.390Z,40.80
2018-03-25T07:11:36.380Z,39.10
2018-03-25T07:12:36.375Z,38.00
2018-03-25T07:13:36.358Z,40.70
2018-03-25T07:14:36.361Z,41.50
2018-03-25T07:15:36.338Z,41.00
2018-03-25T07:16:36.343Z,40.10
2018-03-25T07:17:36.318Z,38.60
2018-03-25T07:18:36.319Z,41.60
2018-03-25T07:19:36.311Z,42.00
2018-03-25T07:20:36.315Z,38.50
2018-03-25T07:21:36.290Z,41.10
2018-03-25T07:22:36.274Z,40.10
2018-03-25T07:23:36.268Z,38.00
2018-03-25T07:24:36.249Z,41.90
2018-03-25T07:25:36.250Z,39.40
2018-03-25T07:26:36.233Z,41.30
2018-03-25T07:27:36.230Z,39.50
2018-03-25T07:28:36.218Z,40.10
2018-03-25T07:29:36.199Z,42.90
2018-03-25T07:30:36.190Z,42.20
2018-03-25T07:31:36.181Z,41.10
2018-03-25T07:32:36.169Z,43.10
2018-03-25T07:33:36.191Z,41.30
2018-03-25T07:34:36.165Z,40.40
2018-03-25T07:35:36.140Z,37.20
2018-03-25T07:36:36.131Z,39.80
2018-03-25T07:37:36.120Z,39.00
2018-03-25T07:38:36.120Z,39.90
2018-03-25T07:39:36.102Z,43.30
2018-03-25T07:40:36.092Z,39.70
2018-03-25T07:41:36.105Z,39.10
2018-03-25T07:42:36.071Z,39.00
2018-03-25T07:43:36.080Z,39.10
2018-03-25T07:44:36.052Z,39.00
2018-03-25T07:45:36.041Z,39.80
2018-03-25T07:46:36.032Z,41.20
2018-03-25T07:47:36.022Z,40.80
2018-03-25T07:48:36.012Z,39.30
2018-03-25T07:49:36.012Z,40.60
2018-03-25T07:50:35.993Z,39.40
2018-03-25T07:51:35.994Z,38.70
2018-03-25T07:52:35.986Z,40.40
2018-03-25T07:53:35.963Z,39.30
2018-03-25T07:54:35.954Z,38.90
2018-03-25T07:55:35.946Z,38.80
2018-03-25T07:56:35.938Z,41.40
2018-03-25T07:57:35.927Z,39.60
2018-03-25T07:58:35.930Z,39.90
2018-03-25T07:59:35.908Z,38.90
2018-03-25T08:00:35.916Z,40.30
2018-03-25T08:01:35.888Z,38.50
2018-03-25T08:02:35.891Z,37.70
2018-03-25T08:03:35.901Z,38.90
2018-03-25T08:04:35.872Z,39.70
2018-03-25T08:05:35.852Z,38.30
2018-03-25T08:06:35.844Z,39.00
2018-03-25T08:07:35.834Z,38.40
2018-03-25T08:08:35.828Z,38.50
2018-03-25T08:09:35.815Z,38.30
2018-03-25T08:10:35.806Z,38.30
2018-03-25T08:11:35.800Z,38.90
2018-03-25T08:12:35.798Z,37.90
2018-03-25T08:13:35.780Z,37.90
2018-03-25T08:14:35.768Z,36.80
2018-03-25T08:15:35.762Z,39.00
2018-03-25T08:16:35.751Z,39.30
2018-03-25T08:17:35.758Z,38.20
2018-03-25T08:18:35.734Z,39.90
2018-03-25T08:19:35.722Z,37.00
2018-03-25T08:20:35.730Z,37.00
2018-03-25T08:21:35.717Z,35.70
2018-03-25T08:22:35.718Z,37.50
2018-03-25T08:23:35.686Z,37.60
2018-03-25T08:24:35.678Z,36.40
2018-03-25T08:25:35.669Z,35.30
2018-03-25T08:26:35.660Z,36.10
2018-03-25T08:27:35.652Z,36.70
2018-03-25T08:28:35.662Z,38.20
2018-03-25T08:29:35.646Z,37.30
2018-03-25T08:30:35.640Z,36.40
2018-03-25T08:31:35.629Z,37.30
2018-03-25T08:32:35.620Z,37.50
2018-03-25T08:33:35.600Z,37.80
2018-03-25T08:34:35.593Z,37.10
2018-03-25T08:35:35.585Z,39.00
2018-03-25T08:36:35.572Z,38.80
2018-03-25T08:37:35.566Z,37.80
2018-03-25T08:38:35.567Z,36.70
2018-03-25T08:39:35.560Z,36.60
2018-03-25T08:40:35.551Z,35.70
2018-03-25T08:41:35.533Z,38.30
2018-03-25T08:42:35.522Z,36.30
2018-03-25T08:43:35.515Z,36.10
2018-03-25T08:44:35.507Z,39.90
2018-03-25T08:45:35.495Z,40.10
2018-03-25T08:46:35.562Z,38.60
2018-03-25T08:47:35.490Z,37.50
2018-03-25T08:48:35.471Z,37.40
2018-03-25T08:49:35.475Z,38.10
2018-03-25T08:50:35.509Z,37.50
2018-03-25T08:51:35.456Z,38.40
2018-03-25T08:52:35.479Z,34.50
2018-03-25T08:53:35.440Z,35.80
2018-03-25T08:54:35.421Z,37.30
2018-03-25T08:55:35.481Z,37.40
2018-03-25T08:56:35.414Z,36.40
2018-03-25T08:57:35.407Z,36.00
2018-03-25T08:58:35.387Z,37.40
2018-03-25T08:59:35.404Z,36.50
2018-03-25T09:00:35.372Z,37.60
2018-03-25T09:01:35.377Z,35.80
2018-03-25T09:02:35.352Z,38.60
2018-03-25T09:03:35.343Z,34.80
2018-03-25T09:04:35.349Z,39.90
2018-03-25T09:05:35.330Z,34.90
2018-03-25T09:06:35.322Z,39.20
2018-03-25T09:07:35.312Z,36.40
2018-03-25T09:08:35.322Z,36.90
2018-03-25T09:09:35.300Z,36.70
2018-03-25T09:10:35.287Z,36.80
2018-03-25T09:11:35.290Z,38.50
2018-03-25T09:12:35.283Z,36.70
2018-03-25T09:13:35.289Z,37.30
2018-03-25T09:14:35.269Z,37.90
2018-03-25T09:15:35.251Z,34.80
2018-03-25T09:16:35.243Z,35.80
2018-03-25T09:17:35.232Z,34.30
2018-03-25T09:18:35.223Z,36.40
2018-03-25T09:19:35.215Z,40.00
2018-03-25T09:20:35.220Z,35.90
2018-03-25T09:21:35.200Z,36.30
2018-03-25T09:22:35.207Z,37.00
2018-03-25T09:23:35.185Z,36.40
2018-03-25T09:24:35.205Z,35.90
2018-03-25T09:25:35.230Z,38.80
2018-03-25T09:26:35.164Z,35.00
2018-03-25T09:27:35.156Z,37.10
2018-03-25T09:28:35.145Z,35.20
2018-03-25T09:29:35.151Z,36.20
2018-03-25T09:30:35.134Z,37.10
2018-03-25T09:31:35.124Z,36.60
2018-03-25T09:32:35.118Z,35.90
2018-03-25T09:33:35.111Z,38.40
2018-03-25T09:34:35.114Z,36.60
2018-03-25T09:35:35.096Z,36.20
2018-03-25T09:36:35.090Z,36.40
2018-03-25T09:37:35.097Z,37.10
2018-03-25T09:38:35.075Z,39.50
2018-03-25T09:39:35.077Z,38.50
2018-03-25T09:40:35.061Z,38.80
2018-03-25T09:41:35.063Z,35.60
2018-03-25T09:42:35.046Z,35.80
2018-03-25T09:43:35.048Z,37.10
2018-03-25T09:44:35.033Z,38.00
2018-03-25T09:45:35.036Z,38.50
2018-03-25T09:46:35.017Z,37.20
2018-03-25T09:47:35.009Z,37.30
2018-03-25T09:48:35.060Z,36.60
2018-03-25T09:49:35.007Z,38.10
2018-03-25T09:50:35.011Z,40.60
2018-03-25T09:51:35.002Z,37.20
2018-03-25T09:52:34.989Z,38.00
2018-03-25T09:53:34.980Z,40.10
2018-03-25T09:54:34.986Z,41.90
2018-03-25T09:55:34.953Z,41.30
2018-03-25T09:56:34.949Z,40.60
2018-03-25T09:57:34.943Z,39.60
2018-03-25T09:58:34.997Z,41.00
2018-03-25T09:59:34.942Z,40.00
2018-03-25T10:00:34.923Z,39.90
2018-03-25T10:01:34.914Z,39.90
2018-03-25T10:02:34.906Z,40.60
2018-03-25T10:03:34.911Z,39.90
2018-03-25T10:04:34.905Z,40.60
2018-03-25T10:05:34.903Z,38.50
2018-03-25T10:06:34.881Z,40.90
2018-03-25T10:07:34.885Z,39.30
2018-03-25T10:08:34.877Z,38.30
2018-03-25T10:09:34.864Z,39.00
2018-03-25T10:10:34.857Z,38.50
2018-03-25T10:11:34.847Z,42.00
2018-03-25T10:12:34.842Z,40.90
2018-03-25T10:13:34.845Z,40.10
2018-03-25T10:14:34.842Z,38.60
2018-03-25T10:15:34.826Z,40.20
2018-03-25T10:16:34.833Z,39.00
2018-03-25T10:17:34.831Z,37.90
2018-03-25T10:18:34.825Z,41.40
2018-03-25T10:19:34.807Z,39.70
2018-03-25T10:20:34.792Z,39.30
2018-03-25T10:21:34.786Z,38.70
2018-03-25T10:22:34.785Z,39.60
2018-03-25T10:23:34.782Z,41.60
2018-03-25T10:24:34.766Z,39.20
2018-03-25T10:25:34.831Z,40.20
2018-03-25T10:26:36.842Z,39.20
2018-03-25T10:27:34.772Z,40.00
2018-03-25T10:28:34.783Z,38.70
2018-03-25T10:29:34.757Z,38.70
2018-03-25T10:30:34.744Z,39.30
2018-03-25T10:31:34.740Z,38.80
2018-03-25T10:32:34.726Z,38.70
2018-03-25T10:33:34.718Z,38.20
2018-03-25T10:34:34.737Z,38.10
2018-03-25T10:35:34.720Z,38.90
2018-03-25T10:36:34.717Z,38.70
2018-03-25T10:37:34.715Z,38.00
2018-03-25T10:38:34.699Z,38.50
2018-03-25T10:39:34.694Z,38.80
2018-03-25T10:40:34.692Z,37.90
2018-03-25T10:41:34.687Z,38.40
2018-03-25T10:42:34.684Z,38.70
2018-03-25T10:43:34.734Z,38.00
2018-03-25T10:44:34.683Z,37.30
2018-03-25T10:45:34.676Z,37.60
2018-03-25T10:46:34.670Z,37.80
2018-03-25T10:47:34.675Z,37.80
2018-03-25T10:48:34.683Z,38.20
2018-03-25T10:49:35.398Z,40.10
2018-03-25T10:50:34.686Z,36.50
2018-03-25T10:51:34.661Z,38.90
2018-03-25T10:52:34.693Z,38.30
2018-03-25T10:53:34.656Z,37.10
2018-03-25T10:54:34.656Z,37.70
2018-03-25T10:55:34.651Z,37.20
2018-03-25T10:56:34.660Z,36.20
2018-03-25T10:57:34.652Z,37.00
2018-03-25T10:58:34.647Z,36.00
2018-03-25T10:59:34.650Z,47.60
2018-03-25T11:00:34.643Z,36.50
2018-03-25T11:01:34.639Z,34.80
2018-03-25T11:02:34.663Z,37.00
2018-03-25T11:03:34.637Z,40.00
2018-03-25T11:04:34.637Z,36.40
2018-03-25T11:05:34.631Z,36.40
2018-03-25T11:06:34.642Z,37.50
2018-03-25T11:07:34.630Z,35.20
2018-03-25T11:08:34.633Z,38.60
2018-03-25T11:09:34.624Z,36.50
2018-03-25T11:10:34.634Z,37.10
2018-03-25T11:11:34.624Z,37.90
2018-03-25T11:12:34.623Z,37.00
2018-03-25T11:13:34.622Z,37.00
2018-03-25T11:14:34.620Z,37.30
2018-03-25T11:15:34.618Z,37.00
2018-03-25T11:16:34.623Z,39.50
2018-03-25T11:17:34.617Z,36.10
2018-03-25T11:18:34.625Z,36.20
2018-03-25T11:19:34.614Z,35.70
2018-03-25T11:20:34.628Z,34.50
2018-03-25T11:21:34.627Z,34.50
2018-03-25T11:22:34.623Z,33.90
2018-03-25T11:23:34.627Z,34.20
2018-03-25T11:24:34.677Z,33.90
2018-03-25T11:25:34.616Z,34.70
2018-03-25T11:26:34.619Z,54.00
2018-03-25T11:27:34.620Z,67.80
2018-03-25T11:28:34.661Z,33.20
2018-03-25T11:29:34.616Z,35.70
2018-03-25T11:30:34.631Z,35.70
2018-03-25T11:31:34.624Z,34.40
2018-03-25T11:32:34.646Z,104.90
2018-03-25T11:33:34.627Z,94.60
2018-03-25T11:34:34.627Z,94.60
2018-03-25T11:35:34.628Z,37.20
2018-03-25T11:36:34.643Z,33.60
2018-03-25T11:37:34.643Z,39.50
2018-03-25T11:38:34.653Z,33.50
2018-03-25T11:39:34.650Z,35.50
2018-03-25T11:40:34.641Z,34.00
2018-03-25T11:41:34.657Z,31.20
2018-03-25T11:42:34.656Z,30.80
2018-03-25T11:43:34.650Z,29.30
2018-03-25T11:44:34.652Z,30.10
2018-03-25T11:45:34.679Z,29.70
2018-03-25T11:46:34.658Z,32.40
2018-03-25T11:47:34.673Z,31.30
2018-03-25T11:48:34.675Z,31.40
2018-03-25T11:49:34.666Z,31.00
2018-03-25T11:50:34.667Z,32.10
2018-03-25T11:51:34.673Z,31.70
2018-03-25T11:52:34.679Z,31.30
2018-03-25T11:53:34.699Z,31.20
2018-03-25T11:54:34.692Z,31.20
2018-03-25T11:55:34.684Z,32.50
2018-03-25T11:56:34.689Z,32.30
2018-03-25T11:57:34.691Z,30.30
2018-03-25T11:58:34.695Z,27.90
2018-03-25T11:59:34.698Z,28.40
2018-03-25T12:00:34.698Z,28.80
2018-03-25T12:01:34.701Z,29.00
2018-03-25T12:02:34.713Z,28.40
2018-03-25T12:03:34.707Z,29.60
2018-03-25T12:04:34.712Z,29.40
2018-03-25T12:05:34.711Z,29.10
2018-03-25T12:06:34.713Z,30.00
2018-03-25T12:07:34.716Z,28.30
2018-03-25T12:08:34.719Z,27.90
2018-03-25T12:09:34.732Z,29.40
2018-03-25T12:10:34.739Z,29.90
2018-03-25T12:11:34.745Z,30.60
2018-03-25T12:12:34.732Z,30.90
2018-03-25T12:13:34.744Z,33.30
2018-03-25T12:14:34.743Z,30.40
2018-03-25T12:15:34.748Z,30.40
2018-03-25T12:16:34.768Z,29.80
2018-03-25T12:17:34.741Z,30.70
2018-03-25T12:18:34.754Z,29.30
2018-03-25T12:19:34.757Z,30.60
2018-03-25T12:20:34.748Z,29.30
2018-03-25T12:21:34.762Z,29.50
2018-03-25T12:22:34.755Z,30.10
2018-03-25T12:23:34.757Z,29.90
2018-03-25T12:24:34.759Z,29.30
2018-03-25T12:25:34.762Z,30.00
2018-03-25T12:26:34.779Z,31.70
2018-03-25T12:27:34.776Z,31.10
2018-03-25T12:28:34.768Z,30.10
2018-03-25T12:29:34.773Z,29.90
2018-03-25T12:30:34.772Z,29.40
2018-03-25T12:31:34.789Z,30.30
2018-03-25T12:32:34.788Z,28.40
2018-03-25T12:33:34.786Z,29.70
2018-03-25T12:34:34.792Z,29.80
2018-03-25T12:35:34.797Z,29.20
2018-03-25T12:36:34.787Z,30.40
2018-03-25T12:37:34.788Z,29.90
2018-03-25T12:38:34.795Z,26.40
2018-03-25T12:39:34.799Z,28.10
2018-03-25T12:40:34.817Z,27.50
2018-03-25T12:41:34.820Z,27.70
2018-03-25T12:42:34.812Z,26.60
2018-03-25T12:43:34.796Z,28.10
2018-03-25T12:44:34.800Z,28.30
2018-03-25T12:45:34.799Z,28.30
2018-03-25T12:46:34.797Z,28.60
2018-03-25T12:47:34.814Z,28.70
2018-03-25T12:48:34.802Z,28.10
2018-03-25T12:49:34.797Z,28.50
2018-03-25T12:50:34.800Z,27.90
2018-03-25T12:51:34.802Z,29.10
2018-03-25T12:52:34.809Z,29.40